createdAt,value
2023-02-02T00:02:40.466Z,3.43
2023-02-02T00:05:25.928Z,3.35
2023-02-02T00:08:11.046Z,4.02
2023-02-02T00:10:55.886Z,3.64
2023-02-02T00:13:40.790Z,3.55
2023-02-02T00:16:25.648Z,3.62
2023-02-02T00:19:19.790Z,3.56
2023-02-02T00:22:05.029Z,3.36
2023-02-02T00:24:49.917Z,3.61
2023-02-02T00:27:34.918Z,3.59
2023-02-02T00:30:19.763Z,3.47
2023-02-02T00:33:04.617Z,3.55
2023-02-02T00:35:56.670Z,3.73
2023-02-02T00:38:42.842Z,3.68
2023-02-02T00:41:28.167Z,3.61
2023-02-02T00:44:14.219Z,3.82
2023-02-02T00:46:59.267Z,3.57
2023-02-02T00:49:44.176Z,3.62
2023-02-02T00:52:29.065Z,3.51
2023-02-02T00:55:17.716Z,4.00
2023-02-02T00:58:03.024Z,3.68
2023-02-02T01:00:49.148Z,3.42
2023-02-02T01:03:35.454Z,3.62
2023-02-02T01:06:20.587Z,3.59
2023-02-02T01:09:06.830Z,3.83
2023-02-02T01:11:55.690Z,3.98
2023-02-02T01:14:44.553Z,4.02
2023-02-02T01:17:29.710Z,4.02
2023-02-02T01:20:15.727Z,4.14
2023-02-02T01:23:02.188Z,3.86
2023-02-02T01:25:47.306Z,3.78
2023-02-02T01:28:33.855Z,3.87
2023-02-02T01:31:19.135Z,4.12
2023-02-02T01:34:08.148Z,3.57
2023-02-02T01:36:55.105Z,3.77
2023-02-02T01:39:40.291Z,3.61
2023-02-02T01:42:25.352Z,3.79
2023-02-02T01:45:19.109Z,3.81
2023-02-02T01:48:04.366Z,3.83
2023-02-02T01:50:49.130Z,3.98
2023-02-02T01:53:35.252Z,3.79
2023-02-02T01:56:21.657Z,3.53
2023-02-02T01:59:06.796Z,4.06
2023-02-02T02:01:54.088Z,4.04
2023-02-02T02:07:40.792Z,4.12
2023-02-02T02:10:27.295Z,3.91
2023-02-02T02:13:16.679Z,3.96
2023-02-02T02:16:02.941Z,3.68
2023-02-02T02:18:48.212Z,3.45
2023-02-02T02:21:33.020Z,3.56
2023-02-02T02:24:18.013Z,3.52
2023-02-02T02:27:02.889Z,4.07
2023-02-02T02:29:50.147Z,4.36
2023-02-02T02:32:35.302Z,4.63
2023-02-02T02:35:20.119Z,4.35
2023-02-02T02:38:06.194Z,4.76
2023-02-02T02:40:53.658Z,4.85
2023-02-02T02:43:38.617Z,5.14
2023-02-02T02:46:23.515Z,4.96
2023-02-02T02:49:10.704Z,5.37
2023-02-02T02:52:00.207Z,5.84
2023-02-02T02:54:47.786Z,5.55
2023-02-02T02:57:32.980Z,5.30
2023-02-02T03:00:17.736Z,5.36
2023-02-02T03:03:03.905Z,5.16
2023-02-02T03:05:50.188Z,5.50
2023-02-02T03:08:39.204Z,5.26
2023-02-02T03:11:24.477Z,5.12
2023-02-02T03:14:09.353Z,5.30
2023-02-02T03:16:54.218Z,5.15
2023-02-02T03:19:40.892Z,4.80
2023-02-02T03:22:25.956Z,5.03
2023-02-02T03:25:12.195Z,5.11
2023-02-02T03:27:57.381Z,5.30
2023-02-02T03:30:42.330Z,5.53
2023-02-02T03:33:27.178Z,5.48
2023-02-02T03:36:11.943Z,5.88
2023-02-02T03:38:59.298Z,5.39
2023-02-02T03:41:45.576Z,6.01
2023-02-02T03:44:32.190Z,6.10
2023-02-02T03:47:23.148Z,5.65
2023-02-02T03:50:15.617Z,6.16
2023-02-02T03:53:01.751Z,6.11
2023-02-02T03:55:46.872Z,6.18
2023-02-02T03:58:31.800Z,5.91
2023-02-02T04:01:23.950Z,6.15
2023-02-02T04:04:08.962Z,5.92
2023-02-02T04:06:53.748Z,6.22
2023-02-02T04:09:38.596Z,5.96
2023-02-02T04:12:24.658Z,5.71
2023-02-02T04:15:12.263Z,5.88
2023-02-02T04:18:01.560Z,6.01
2023-02-02T04:20:46.501Z,5.95
2023-02-02T04:23:32.636Z,5.85
2023-02-02T04:26:20.193Z,6.43
2023-02-02T04:29:06.409Z,6.12
2023-02-02T04:31:51.761Z,6.11
2023-02-02T04:34:37.075Z,5.85
2023-02-02T04:37:21.872Z,5.88
2023-02-02T04:40:06.813Z,6.04
2023-02-02T04:42:51.635Z,5.91
2023-02-02T04:45:36.618Z,5.73
2023-02-02T04:48:21.430Z,5.87
2023-02-02T04:51:08.177Z,5.72
2023-02-02T04:53:53.327Z,5.89
2023-02-02T04:56:38.615Z,5.97
2023-02-02T04:59:25.957Z,6.06
2023-02-02T05:02:15.183Z,6.00
2023-02-02T05:07:59.317Z,6.00
2023-02-02T05:10:44.048Z,6.11
2023-02-02T05:13:29.021Z,6.45
2023-02-02T05:16:13.779Z,6.06
2023-02-02T05:19:00.976Z,6.03
2023-02-02T05:21:46.112Z,6.05
2023-02-02T05:24:33.912Z,5.94
2023-02-02T05:27:19.130Z,5.98
2023-02-02T05:30:03.946Z,5.99
2023-02-02T05:32:48.871Z,6.38
2023-02-02T05:35:33.931Z,6.00
2023-02-02T05:38:18.947Z,6.33
2023-02-02T05:41:03.963Z,6.12
2023-02-02T05:43:48.728Z,6.43
2023-02-02T05:46:33.697Z,6.27
2023-02-02T05:49:18.473Z,6.36
2023-02-02T05:52:03.316Z,6.01
2023-02-02T05:54:48.101Z,6.66
2023-02-02T05:57:32.970Z,6.36
2023-02-02T06:00:17.826Z,6.74
2023-02-02T06:03:13.210Z,6.60
2023-02-02T06:05:59.363Z,6.45
2023-02-02T06:08:48.357Z,6.83
2023-02-02T06:11:33.581Z,6.69
2023-02-02T06:14:18.336Z,6.84
2023-02-02T06:17:05.533Z,6.73
2023-02-02T06:19:55.023Z,6.61
2023-02-02T06:22:41.318Z,6.52
2023-02-02T06:25:26.847Z,6.37
2023-02-02T06:28:13.190Z,6.30
2023-02-02T06:31:02.675Z,6.08
2023-02-02T06:33:47.717Z,6.57
2023-02-02T06:36:32.731Z,6.64
2023-02-02T06:39:17.572Z,6.64
2023-02-02T06:42:19.387Z,6.00
2023-02-02T06:45:06.261Z,5.75
2023-02-02T06:47:51.123Z,6.04
2023-02-02T06:50:37.288Z,6.39
2023-02-02T06:53:22.359Z,6.39
2023-02-02T06:56:14.884Z,6.10
2023-02-02T06:59:00.167Z,6.69
2023-02-02T07:01:45.182Z,6.21
2023-02-02T07:04:30.148Z,6.22
2023-02-02T07:07:15.091Z,6.38
2023-02-02T07:09:59.950Z,6.19
2023-02-02T07:12:47.704Z,6.38
2023-02-02T07:15:32.922Z,6.32
2023-02-02T07:18:23.557Z,6.08
2023-02-02T07:21:08.813Z,5.88
2023-02-02T07:23:53.745Z,5.92
2023-02-02T07:26:38.573Z,6.11
2023-02-02T07:29:23.611Z,6.44
2023-02-02T07:32:11.817Z,6.38
2023-02-02T07:34:57.032Z,6.66
2023-02-02T07:37:43.242Z,6.35
2023-02-02T07:40:28.564Z,6.29
2023-02-02T07:43:15.751Z,6.24
2023-02-02T07:46:01.035Z,6.61
2023-02-02T07:48:45.940Z,7.38
2023-02-02T07:51:30.743Z,7.47
2023-02-02T07:54:18.086Z,7.57
2023-02-02T07:57:03.060Z,7.75
2023-02-02T07:59:47.944Z,7.81
2023-02-02T08:02:32.837Z,7.92
2023-02-02T08:05:17.773Z,7.65
2023-02-02T08:08:04.024Z,8.81
2023-02-02T08:10:53.093Z,7.98
2023-02-02T08:13:38.164Z,7.45
2023-02-02T08:16:27.449Z,6.81
2023-02-02T08:19:13.878Z,7.15
2023-02-02T08:21:59.219Z,6.81
2023-02-02T08:24:44.048Z,6.47
2023-02-02T08:27:30.757Z,6.46
2023-02-02T08:30:15.669Z,6.98
2023-02-02T08:33:00.591Z,6.73
2023-02-02T08:35:45.502Z,7.55
2023-02-02T08:38:32.848Z,7.89
2023-02-02T08:41:18.085Z,8.09
2023-02-02T08:44:03.093Z,8.10
2023-02-02T08:46:50.360Z,8.83
2023-02-02T08:49:35.671Z,9.28
2023-02-02T08:52:24.194Z,9.27
2023-02-02T08:55:12.753Z,8.84
2023-02-02T08:57:57.890Z,9.19
2023-02-02T09:00:42.670Z,9.52
2023-02-02T09:03:27.465Z,9.63
2023-02-02T09:06:12.265Z,9.37
2023-02-02T09:08:57.203Z,9.79
2023-02-02T09:11:42.174Z,9.80
2023-02-02T09:14:27.085Z,10.12
2023-02-02T09:17:13.216Z,10.41
2023-02-02T09:19:58.495Z,10.03
2023-02-02T09:22:46.994Z,10.47
2023-02-02T09:25:32.198Z,9.97
2023-02-02T09:28:21.314Z,9.88
2023-02-02T09:31:06.590Z,10.28
2023-02-02T09:33:51.933Z,10.10
2023-02-02T09:36:39.109Z,10.64
2023-02-02T09:39:24.342Z,10.45
2023-02-02T09:42:09.180Z,10.26
2023-02-02T09:44:54.088Z,10.33
2023-02-02T09:47:38.980Z,10.18
2023-02-02T09:50:23.883Z,10.00
2023-02-02T09:53:08.770Z,9.88
2023-02-02T09:55:53.569Z,10.32
2023-02-02T09:58:38.505Z,9.25
2023-02-02T10:01:25.266Z,9.36
2023-02-02T10:04:12.678Z,8.99
2023-02-02T10:07:01.337Z,8.30
2023-02-02T10:09:46.469Z,8.38
2023-02-02T10:12:31.202Z,8.74
2023-02-02T10:15:17.243Z,7.95
2023-02-02T10:18:04.854Z,7.75
2023-02-02T10:20:50.908Z,8.62
2023-02-02T10:23:35.857Z,8.77
2023-02-02T10:26:20.706Z,8.67
2023-02-02T10:29:06.113Z,7.82
2023-02-02T10:31:51.276Z,8.21
2023-02-02T10:34:39.568Z,7.63
2023-02-02T10:37:26.093Z,7.86
2023-02-02T10:40:11.274Z,7.50
2023-02-02T10:42:57.244Z,6.40
2023-02-02T10:45:43.155Z,6.34
2023-02-02T10:48:27.910Z,6.80
2023-02-02T10:51:12.905Z,6.49
2023-02-02T10:53:58.940Z,6.99
2023-02-02T10:56:46.998Z,7.38
2023-02-02T10:59:36.464Z,6.49
2023-02-02T11:02:22.852Z,6.38
2023-02-02T11:05:09.240Z,6.63
2023-02-02T11:08:01.870Z,6.82
2023-02-02T11:10:47.052Z,8.24
2023-02-02T11:13:32.489Z,8.22
2023-02-02T11:16:17.840Z,7.49
2023-02-02T11:19:02.784Z,5.04
2023-02-02T11:21:47.603Z,4.34
2023-02-02T11:24:32.496Z,4.83
2023-02-02T11:27:17.327Z,4.82
2023-02-02T11:30:02.215Z,4.73
2023-02-02T11:32:49.478Z,6.37
2023-02-02T11:35:34.410Z,6.20
2023-02-02T11:38:19.444Z,5.34
2023-02-02T11:41:07.200Z,5.27
2023-02-02T11:43:52.308Z,4.21
2023-02-02T11:46:37.222Z,5.19
2023-02-02T11:49:22.077Z,5.77
2023-02-02T11:52:09.651Z,6.22
2023-02-02T11:54:54.636Z,6.60
2023-02-02T11:57:39.672Z,5.72
2023-02-02T12:00:24.715Z,6.56
2023-02-02T12:03:09.831Z,6.05
2023-02-02T12:05:54.748Z,6.18
2023-02-02T12:08:39.589Z,6.16
2023-02-02T12:11:27.131Z,5.64
2023-02-02T12:14:11.697Z,5.89
2023-02-02T12:16:56.669Z,5.99
2023-02-02T12:19:42.895Z,6.33
2023-02-02T12:22:29.854Z,6.48
2023-02-02T12:25:15.077Z,6.57
2023-02-02T12:27:59.823Z,6.58
2023-02-02T12:30:44.851Z,6.32
2023-02-02T12:33:31.892Z,5.55
2023-02-02T12:36:16.923Z,4.64
2023-02-02T12:39:04.156Z,3.64
2023-02-02T12:41:49.314Z,3.42
2023-02-02T12:44:34.259Z,3.44
2023-02-02T12:47:20.544Z,3.50
2023-02-02T12:50:05.790Z,3.29
2023-02-02T12:52:50.737Z,3.12
2023-02-02T12:55:37.839Z,3.01
2023-02-02T12:58:29.376Z,2.21
2023-02-02T13:01:14.642Z,2.48
2023-02-02T13:04:02.060Z,2.62
2023-02-02T13:06:47.082Z,2.71
2023-02-02T13:09:31.987Z,2.45
2023-02-02T13:12:16.906Z,2.13
2023-02-02T13:15:01.900Z,2.03
2023-02-02T13:17:48.001Z,2.27
2023-02-02T13:20:33.216Z,2.14
2023-02-02T13:23:20.544Z,2.01
2023-02-02T13:26:05.669Z,1.87
2023-02-02T13:28:53.474Z,2.51
2023-02-02T13:31:38.731Z,2.37
2023-02-02T13:34:23.938Z,2.07
2023-02-02T13:37:08.794Z,2.06
2023-02-02T13:39:53.720Z,2.09
2023-02-02T13:42:40.517Z,1.96
2023-02-02T13:45:26.360Z,1.79
2023-02-02T13:48:11.688Z,2.21
2023-02-02T13:50:56.519Z,2.06
2023-02-02T13:53:41.422Z,2.09
2023-02-02T13:56:29.235Z,2.07
2023-02-02T13:59:16.094Z,2.19
2023-02-02T14:02:04.863Z,2.02
2023-02-02T14:04:49.948Z,2.30
2023-02-02T14:07:35.928Z,2.28
2023-02-02T14:10:21.912Z,2.12
2023-02-02T14:13:08.971Z,1.91
2023-02-02T14:15:54.087Z,1.99
2023-02-02T14:18:39.963Z,2.22
2023-02-02T14:21:27.586Z,2.32
2023-02-02T14:24:12.844Z,2.18
2023-02-02T14:26:57.774Z,2.15
2023-02-02T14:29:46.798Z,2.40
2023-02-02T14:32:32.099Z,2.38
2023-02-02T14:35:16.906Z,2.44
2023-02-02T14:38:01.753Z,2.15
2023-02-02T14:40:46.594Z,2.14
2023-02-02T14:43:31.492Z,2.10
2023-02-02T14:46:16.336Z,2.39
2023-02-02T14:49:04.426Z,2.08
2023-02-02T14:51:51.350Z,1.17
2023-02-02T14:54:36.314Z,0.91
2023-02-02T14:57:22.366Z,1.01
2023-02-02T15:00:07.709Z,1.14
2023-02-02T15:02:52.661Z,1.11
2023-02-02T15:05:44.966Z,1.12
2023-02-02T15:08:30.175Z,1.18
2023-02-02T15:11:16.153Z,1.23
2023-02-02T15:14:02.464Z,0.94
2023-02-02T15:16:48.039Z,0.99
2023-02-02T15:19:33.151Z,1.03
2023-02-02T15:22:18.014Z,0.90
2023-02-02T15:25:02.774Z,0.89
2023-02-02T15:27:56.326Z,0.99
2023-02-02T15:30:42.170Z,0.84
2023-02-02T15:33:29.349Z,0.99
2023-02-02T15:36:14.402Z,0.85
2023-02-02T15:38:59.361Z,0.81
2023-02-02T15:41:44.038Z,0.87
2023-02-02T15:44:28.951Z,0.88
2023-02-02T15:47:13.849Z,0.88
2023-02-02T15:50:00.065Z,0.85
2023-02-02T15:52:46.457Z,0.88
2023-02-02T15:55:32.711Z,0.83
2023-02-02T15:58:17.998Z,1.02
2023-02-02T16:01:04.266Z,1.80
2023-02-02T16:03:50.589Z,2.01
2023-02-02T16:06:35.845Z,1.59
2023-02-02T16:09:20.649Z,0.93
2023-02-02T16:12:07.972Z,0.89
2023-02-02T16:14:53.113Z,1.26
2023-02-02T16:17:37.975Z,1.71
2023-02-02T16:20:22.864Z,1.66
2023-02-02T16:23:07.585Z,1.25
2023-02-02T16:25:55.462Z,1.35
2023-02-02T16:28:45.718Z,1.25
2023-02-02T16:31:33.509Z,1.38
2023-02-02T16:34:18.572Z,1.14
2023-02-02T16:37:03.430Z,0.97
2023-02-02T16:39:48.291Z,1.12
2023-02-02T16:42:33.197Z,1.30
2023-02-02T16:45:18.053Z,1.27
2023-02-02T16:48:07.288Z,1.43
2023-02-02T16:50:52.455Z,1.28
2023-02-02T16:53:37.297Z,1.57
2023-02-02T16:56:22.181Z,1.56
2023-02-02T16:59:07.275Z,1.42
2023-02-02T17:01:52.175Z,1.49
2023-02-02T17:04:39.469Z,1.44
2023-02-02T17:07:27.368Z,1.92
2023-02-02T17:10:12.451Z,1.79
2023-02-02T17:12:57.491Z,1.62
2023-02-02T17:15:43.387Z,1.89
2023-02-02T17:18:28.442Z,1.92
2023-02-02T17:21:13.287Z,1.77
2023-02-02T17:23:58.151Z,1.55
2023-02-02T17:26:43.074Z,1.72
2023-02-02T17:29:27.721Z,1.50
2023-02-02T17:32:12.651Z,1.50
2023-02-02T17:34:57.538Z,1.66
2023-02-02T17:37:44.627Z,1.83
2023-02-02T17:40:30.852Z,1.95
2023-02-02T17:43:16.065Z,2.02
2023-02-02T17:46:08.370Z,2.25
2023-02-02T17:48:53.421Z,2.51
2023-02-02T17:51:38.316Z,2.17
2023-02-02T17:54:23.147Z,2.83
2023-02-02T17:57:07.881Z,3.53
2023-02-02T17:59:52.783Z,2.52
2023-02-02T18:02:37.887Z,2.50
2023-02-02T18:05:22.929Z,2.24
2023-02-02T18:08:08.204Z,2.44
2023-02-02T18:10:55.457Z,2.45
2023-02-02T18:13:41.723Z,2.51
2023-02-02T18:16:26.944Z,2.51
2023-02-02T18:19:11.830Z,2.78
2023-02-02T18:21:56.714Z,3.12
2023-02-02T18:24:41.483Z,3.12
2023-02-02T18:27:26.532Z,2.59
2023-02-02T18:30:11.580Z,2.34
2023-02-02T18:32:58.910Z,2.70
2023-02-02T18:35:44.227Z,2.54
2023-02-02T18:38:30.291Z,2.72
2023-02-02T18:41:15.578Z,3.16
2023-02-02T18:44:10.680Z,3.56
2023-02-02T18:46:57.031Z,3.76
2023-02-02T18:49:42.278Z,3.48
2023-02-02T18:52:27.101Z,3.45
2023-02-02T18:55:13.107Z,3.39
2023-02-02T18:57:58.448Z,3.13
2023-02-02T19:00:43.313Z,3.16
2023-02-02T19:03:28.290Z,3.56
2023-02-02T19:06:14.403Z,4.39
2023-02-02T19:08:59.642Z,4.01
2023-02-02T19:11:53.257Z,3.63
2023-02-02T19:14:39.682Z,3.79
2023-02-02T19:17:27.192Z,3.93
2023-02-02T19:20:12.152Z,3.84
2023-02-02T19:22:57.215Z,3.64
2023-02-02T19:25:46.559Z,3.53
2023-02-02T19:28:36.805Z,3.52
2023-02-02T19:31:21.991Z,3.39
2023-02-02T19:34:09.017Z,3.59
2023-02-02T19:36:54.122Z,3.52
2023-02-02T19:39:40.151Z,3.22
2023-02-02T19:42:25.538Z,2.99
2023-02-02T19:45:10.323Z,2.75
2023-02-02T19:47:57.049Z,2.47
2023-02-02T19:50:43.855Z,2.55
2023-02-02T19:53:28.975Z,2.64
2023-02-02T19:56:14.087Z,2.42
2023-02-02T19:58:59.351Z,2.45
2023-02-02T20:01:44.392Z,2.47
2023-02-02T20:04:31.403Z,2.38
2023-02-02T20:07:17.674Z,2.53
2023-02-02T20:10:05.340Z,2.32
2023-02-02T20:12:50.580Z,2.21
2023-02-02T20:15:35.415Z,2.62
2023-02-02T20:18:21.564Z,2.74
2023-02-02T20:21:11.012Z,2.90
2023-02-02T20:23:59.978Z,3.02
2023-02-02T20:26:45.212Z,2.70
2023-02-02T20:29:31.279Z,3.11
2023-02-02T20:32:16.388Z,3.02
2023-02-02T20:35:01.276Z,2.97
2023-02-02T20:40:50.785Z,2.71
2023-02-02T20:43:39.048Z,3.09
2023-02-02T20:46:24.131Z,3.09
2023-02-02T20:49:09.176Z,2.92
2023-02-02T20:51:57.644Z,2.99
2023-02-02T20:54:42.967Z,2.54
2023-02-02T20:57:29.018Z,2.66
2023-02-02T21:00:17.262Z,2.69
2023-02-02T21:03:04.551Z,2.60
2023-02-02T21:05:51.450Z,2.60
2023-02-02T21:08:36.613Z,2.55
2023-02-02T21:11:22.530Z,2.46
2023-02-02T21:14:07.848Z,2.54
2023-02-02T21:16:57.412Z,2.67
2023-02-02T21:19:50.227Z,3.40
2023-02-02T21:22:37.455Z,2.72
2023-02-02T21:25:22.489Z,2.48
2023-02-02T21:28:07.459Z,2.58
2023-02-02T21:30:52.424Z,2.84
2023-02-02T21:33:41.608Z,2.91
2023-02-02T21:36:26.884Z,2.60
2023-02-02T21:39:11.866Z,2.58
2023-02-02T21:41:57.991Z,2.54
2023-02-02T21:44:43.158Z,2.48
2023-02-02T21:47:27.954Z,2.84
2023-02-02T21:50:17.100Z,3.42
2023-02-02T21:53:02.320Z,3.13
2023-02-02T21:55:47.202Z,3.19
2023-02-02T21:58:34.279Z,3.11
2023-02-02T22:01:20.528Z,3.19
2023-02-02T22:04:05.739Z,3.33
2023-02-02T22:06:50.637Z,3.33
2023-02-02T22:09:35.578Z,3.07
2023-02-02T22:12:20.460Z,3.07
2023-02-02T22:15:05.406Z,3.42
2023-02-02T22:17:50.359Z,3.14
2023-02-02T22:20:36.435Z,3.00
2023-02-02T22:23:21.807Z,2.96
2023-02-02T22:26:06.799Z,2.92
2023-02-02T22:28:51.795Z,2.97
2023-02-02T22:31:36.684Z,3.08
2023-02-02T22:34:21.533Z,2.70
2023-02-02T22:37:06.526Z,2.61
2023-02-02T22:39:51.480Z,2.70
2023-02-02T22:42:36.555Z,2.87
2023-02-02T22:45:21.635Z,2.41
2023-02-02T22:48:06.457Z,2.52
2023-02-02T22:50:51.337Z,2.64
2023-02-02T22:53:36.328Z,2.77
2023-02-02T22:56:21.250Z,3.33
2023-02-02T22:59:07.258Z,3.69
2023-02-02T23:01:52.534Z,3.44
2023-02-02T23:04:39.602Z,3.21
2023-02-02T23:07:25.925Z,3.01
2023-02-02T23:10:11.081Z,3.25
2023-02-02T23:12:58.699Z,3.08
2023-02-02T23:15:45.301Z,3.04
2023-02-02T23:18:30.552Z,3.14
2023-02-02T23:21:15.370Z,2.90
2023-02-02T23:24:00.368Z,2.92
2023-02-02T23:26:45.284Z,3.06
2023-02-02T23:29:30.180Z,3.21
2023-02-02T23:32:15.076Z,3.10
2023-02-02T23:35:01.148Z,2.99
2023-02-02T23:37:47.529Z,2.99
2023-02-02T23:40:32.758Z,3.23
2023-02-02T23:43:17.697Z,3.46
2023-02-02T23:46:02.547Z,2.97
2023-02-02T23:48:48.684Z,3.20
2023-02-02T23:51:33.870Z,3.38
2023-02-02T23:54:18.764Z,3.24
2023-02-02T23:57:03.696Z,3.27
2023-02-02T23:59:48.638Z,3.33
